Lovejoy, Illinois
Current Conditions -  °F | °C
As of 3:53 PM on Monday 26 Jan 2015 (Local Time) from KCPS Reporting Station
Broken Clouds Broken Clouds  
Wind Chill: 35°   Ceiling: 4200
Heat Index: 39°   Visibility: 10mi
Dew Point: 30°   Wind: 6mph
Humidity: 70%   Direction: 130°SE
Pressure: 29.91"   Gusts: NA
Location:  38.63°N, 90.15°W
Report Text: KCPS 262153Z 13005KT 10SM BKN042 BKN049 04/M01 A2991 RMK AO2 SLP130 T00391011
Loading
Personal Weather Stations






























Interactive Weather Map New forecast layout! Learn more

10-Day Weather Forecast

Advertisements
Track Severe Weather on mobile